createdAt,value
2019-05-21T00:03:26.061Z,15.10
2019-05-21T00:05:59.850Z,14.70
2019-05-21T00:08:28.283Z,14.80
2019-05-21T00:11:01.861Z,15.10
2019-05-21T00:13:40.234Z,13.90
2019-05-21T00:19:10.576Z,14.10
2019-05-21T00:21:40.494Z,14.20
2019-05-21T00:24:45.215Z,14.20
2019-05-21T00:27:40.438Z,14.20
2019-05-21T00:30:31.095Z,14.30
2019-05-21T00:33:25.078Z,14.10
2019-05-21T00:36:17.847Z,14.10
2019-05-21T00:39:00.682Z,14.40
2019-05-21T00:45:06.076Z,13.90
2019-05-21T00:53:40.351Z,14.10
2019-05-21T01:06:04.222Z,13.50
2019-05-21T01:08:39.257Z,13.40
2019-05-21T01:11:25.146Z,13.40
2019-05-21T01:13:56.729Z,13.20
2019-05-21T01:16:28.830Z,13.20
2019-05-21T01:19:03.807Z,13.30
2019-05-21T01:21:33.213Z,13.60
2019-05-21T01:24:20.471Z,13.60
2019-05-21T01:26:55.057Z,13.30
2019-05-21T01:29:27.486Z,13.00
2019-05-21T01:32:20.606Z,13.50
2019-05-21T01:34:59.308Z,13.30
2019-05-21T01:40:41.628Z,13.30
2019-05-21T01:43:20.919Z,13.30
2019-05-21T01:45:59.442Z,13.30
2019-05-21T01:48:31.839Z,13.40
2019-05-21T01:51:00.649Z,13.30
2019-05-21T01:53:34.190Z,13.30
2019-05-21T01:56:05.374Z,13.40
2019-05-21T01:58:38.861Z,13.40
2019-05-21T02:01:15.671Z,13.30
2019-05-21T02:04:03.642Z,13.40
2019-05-21T02:06:49.357Z,13.30
2019-05-21T02:09:21.126Z,13.30
2019-05-21T02:14:48.683Z,13.30
2019-05-21T02:17:22.918Z,13.20
2019-05-21T02:19:56.438Z,13.10
2019-05-21T02:22:59.003Z,13.10
2019-05-21T02:25:42.056Z,13.20
2019-05-21T02:28:28.169Z,13.20
2019-05-21T02:31:05.506Z,13.10
2019-05-21T02:33:34.649Z,13.10
2019-05-21T02:36:07.503Z,13.10
2019-05-21T02:38:42.576Z,12.90
2019-05-21T02:45:04.105Z,13.10
2019-05-21T02:47:41.009Z,13.10
2019-05-21T02:50:16.856Z,13.00
2019-05-21T02:55:55.505Z,13.00
2019-05-21T02:58:27.433Z,13.00
2019-05-21T03:01:20.614Z,13.50
2019-05-21T03:04:02.338Z,12.90
2019-05-21T03:07:03.934Z,12.90
2019-05-21T03:09:37.361Z,12.90
2019-05-21T03:12:42.378Z,12.80
2019-05-21T03:15:18.200Z,12.80
2019-05-21T03:17:52.342Z,12.80
2019-05-21T03:20:20.988Z,12.80
2019-05-21T03:22:55.723Z,12.80
2019-05-21T03:25:47.639Z,13.30
2019-05-21T03:28:26.217Z,12.90
2019-05-21T03:30:57.835Z,12.90
2019-05-21T03:33:45.759Z,12.90
2019-05-21T03:36:32.757Z,12.90
2019-05-21T03:39:06.845Z,13.00
2019-05-21T03:41:43.416Z,13.80
2019-05-21T03:44:59.057Z,13.00
2019-05-21T03:47:33.151Z,13.00
2019-05-21T03:50:09.612Z,13.00
2019-05-21T03:52:41.376Z,13.20
2019-05-21T03:55:18.282Z,13.10
2019-05-21T03:57:50.782Z,13.20
2019-05-21T04:00:33.213Z,13.10
2019-05-21T04:03:13.053Z,13.20
2019-05-21T04:06:01.244Z,13.30
2019-05-21T04:08:40.359Z,13.30
2019-05-21T04:11:19.279Z,13.30
2019-05-21T04:14:28.522Z,12.80
2019-05-21T04:17:06.197Z,13.30
2019-05-21T04:26:21.519Z,13.30
2019-05-21T04:29:03.907Z,13.30
2019-05-21T04:32:26.848Z,13.30
2019-05-21T04:41:10.833Z,14.30
2019-05-21T04:43:54.037Z,13.30
2019-05-21T04:46:37.423Z,13.40
2019-05-21T04:49:23.725Z,13.40
2019-05-21T04:52:01.735Z,13.40
2019-05-21T04:57:40.678Z,13.60
2019-05-21T05:00:22.529Z,13.70
2019-05-21T05:08:47.055Z,14.60
2019-05-21T05:11:26.572Z,13.80
2019-05-21T05:17:17.489Z,13.80
2019-05-21T05:26:17.786Z,15.10
2019-05-21T05:28:51.404Z,14.20
2019-05-21T05:31:24.137Z,14.20
2019-05-21T05:33:55.826Z,14.30
2019-05-21T05:36:29.966Z,14.10
2019-05-21T05:39:18.058Z,13.90
2019-05-21T05:41:56.330Z,14.00
2019-05-21T05:44:29.699Z,14.10
2019-05-21T05:47:08.069Z,14.10
2019-05-21T05:50:13.881Z,14.20
2019-05-21T05:52:42.174Z,14.20
2019-05-21T05:55:23.277Z,14.30
2019-05-21T05:58:20.271Z,14.40
2019-05-21T06:01:00.042Z,14.60
2019-05-21T06:03:43.044Z,16.40
2019-05-21T06:06:39.867Z,15.30
2019-05-21T06:09:34.061Z,15.00
2019-05-21T06:12:32.662Z,16.20
2019-05-21T06:15:02.011Z,15.60
2019-05-21T06:17:54.037Z,15.70
2019-05-21T06:23:24.955Z,15.70
2019-05-21T06:26:17.298Z,15.90
2019-05-21T06:31:56.535Z,15.90
2019-05-21T06:37:55.241Z,16.10
2019-05-21T06:40:39.424Z,16.10
2019-05-21T06:43:28.342Z,16.10
2019-05-21T06:46:04.613Z,16.40
2019-05-21T06:52:16.520Z,16.60
2019-05-21T06:55:09.494Z,16.70
2019-05-21T07:01:01.612Z,17.00
2019-05-21T07:04:02.382Z,17.80
2019-05-21T07:06:37.915Z,17.40
2019-05-21T07:09:59.838Z,17.40
2019-05-21T07:12:31.704Z,17.20
2019-05-21T07:15:17.446Z,17.00
2019-05-21T07:17:49.345Z,17.00
2019-05-21T07:24:01.330Z,17.10
2019-05-21T07:26:56.592Z,16.10
2019-05-21T07:29:48.710Z,17.10
2019-05-21T07:33:05.321Z,15.70
2019-05-21T07:41:54.828Z,15.80
2019-05-21T07:44:36.547Z,15.90
2019-05-21T07:47:20.558Z,16.00
2019-05-21T07:50:24.538Z,16.10
2019-05-21T07:56:29.912Z,16.30
2019-05-21T07:59:23.675Z,16.50
2019-05-21T08:02:26.473Z,16.50
2019-05-21T08:04:54.164Z,16.60
2019-05-21T08:07:45.435Z,16.70
2019-05-21T08:10:29.398Z,16.90
2019-05-21T08:13:29.650Z,17.50
2019-05-21T08:16:06.419Z,17.00
2019-05-21T08:19:13.984Z,18.80
2019-05-21T08:22:05.200Z,17.60
2019-05-21T08:24:57.258Z,17.90
2019-05-21T08:27:54.663Z,17.70
2019-05-21T08:30:35.250Z,18.10
2019-05-21T08:39:47.801Z,18.60
2019-05-21T08:42:32.964Z,18.70
2019-05-21T08:45:26.714Z,18.90
2019-05-21T08:51:25.380Z,19.60
2019-05-21T08:54:07.881Z,19.80
2019-05-21T08:56:42.336Z,19.80
2019-05-21T08:59:42.839Z,19.50
2019-05-21T09:02:27.664Z,19.10
2019-05-21T09:05:21.834Z,19.00
2019-05-21T09:08:31.470Z,19.60
2019-05-21T09:11:10.849Z,18.20
2019-05-21T09:13:51.235Z,18.30
2019-05-21T09:16:24.667Z,18.10
2019-05-21T09:18:59.847Z,18.20
2019-05-21T09:21:34.432Z,17.60
2019-05-21T09:24:51.699Z,17.30
2019-05-21T09:27:38.137Z,17.00
2019-05-21T09:30:32.046Z,16.70
2019-05-21T09:33:28.303Z,16.60
2019-05-21T09:36:02.669Z,16.80
2019-05-21T09:38:48.586Z,16.90
2019-05-21T09:41:28.923Z,16.50
2019-05-21T09:47:06.041Z,16.50
2019-05-21T09:52:33.874Z,16.20
2019-05-21T09:55:21.956Z,16.90
2019-05-21T09:58:29.819Z,16.20
2019-05-21T10:01:12.902Z,16.20
2019-05-21T10:04:08.902Z,16.00
2019-05-21T10:07:07.949Z,16.20
2019-05-21T10:09:42.275Z,16.20
2019-05-21T10:15:35.426Z,16.40
2019-05-21T10:18:16.106Z,17.30
2019-05-21T10:21:06.075Z,16.50
2019-05-21T10:26:57.471Z,16.50
2019-05-21T10:29:55.908Z,16.60
2019-05-21T10:32:40.023Z,16.70
2019-05-21T10:35:11.948Z,16.80
2019-05-21T10:38:18.702Z,16.80
2019-05-21T10:40:50.811Z,15.80
2019-05-21T10:43:44.161Z,16.60
2019-05-21T10:46:15.198Z,16.50
2019-05-21T10:48:59.860Z,16.50
2019-05-21T10:54:46.207Z,16.70
2019-05-21T10:57:40.859Z,16.80
2019-05-21T11:00:23.623Z,16.90
2019-05-21T11:03:20.408Z,17.00
2019-05-21T11:06:19.806Z,17.70
2019-05-21T11:09:29.849Z,16.90
2019-05-21T11:12:43.294Z,17.00
2019-05-21T11:15:12.615Z,17.40
2019-05-21T11:23:48.981Z,17.40
2019-05-21T11:26:22.759Z,17.40
2019-05-21T11:28:58.402Z,17.10
2019-05-21T11:31:37.171Z,16.90
2019-05-21T11:34:17.876Z,16.60
2019-05-21T11:36:53.106Z,17.80
2019-05-21T11:39:24.538Z,16.40
2019-05-21T11:41:57.573Z,17.20
2019-05-21T11:44:43.569Z,17.20
2019-05-21T11:47:13.615Z,17.30
2019-05-21T11:50:04.214Z,17.50
2019-05-21T11:52:36.568Z,17.30
2019-05-21T11:55:12.963Z,17.20
2019-05-21T11:57:42.149Z,16.90
2019-05-21T12:00:27.256Z,18.40
2019-05-21T12:03:01.935Z,16.50
2019-05-21T12:12:11.628Z,16.40
2019-05-21T12:15:13.846Z,16.40
2019-05-21T12:18:04.895Z,16.40
2019-05-21T12:20:55.087Z,16.50
2019-05-21T12:26:54.914Z,16.60
2019-05-21T12:29:28.869Z,16.70
2019-05-21T12:32:25.448Z,18.10
2019-05-21T12:35:02.076Z,17.00
2019-05-21T12:37:42.122Z,17.10
2019-05-21T12:40:40.113Z,16.60
2019-05-21T12:46:33.570Z,16.30
2019-05-21T12:49:27.767Z,16.80
2019-05-21T13:01:03.569Z,16.60
2019-05-21T13:04:18.688Z,16.40
2019-05-21T13:07:06.511Z,16.30
2019-05-21T13:09:55.161Z,16.30
2019-05-21T13:16:56.103Z,16.40
2019-05-21T13:23:54.129Z,16.30
2019-05-21T13:27:07.480Z,16.50
2019-05-21T13:33:30.238Z,15.50
2019-05-21T13:36:50.444Z,16.30
2019-05-21T13:45:42.656Z,16.30
2019-05-21T13:48:46.796Z,16.50
2019-05-21T13:51:50.297Z,16.50
2019-05-21T13:54:51.014Z,16.60
2019-05-21T14:04:17.981Z,16.70
2019-05-21T14:07:01.920Z,16.90
2019-05-21T14:13:23.498Z,16.90
2019-05-21T14:16:34.769Z,16.70
2019-05-21T14:19:23.592Z,16.80
2019-05-21T14:22:44.722Z,15.60
2019-05-21T14:25:52.574Z,18.40
2019-05-21T14:32:06.432Z,16.80
2019-05-21T14:35:02.177Z,16.60
2019-05-21T14:37:53.746Z,16.40
2019-05-21T14:40:32.252Z,16.50
2019-05-21T14:43:32.457Z,17.50
2019-05-21T14:46:17.230Z,16.80
2019-05-21T14:49:24.366Z,17.10
2019-05-21T14:55:17.318Z,17.20
2019-05-21T15:13:29.815Z,17.40
2019-05-21T15:23:18.025Z,18.00
2019-05-21T15:38:49.430Z,17.40
2019-05-21T15:47:38.111Z,17.60
2019-05-21T15:57:21.037Z,18.30
2019-05-21T16:00:06.519Z,17.50
2019-05-21T16:05:59.416Z,17.70
2019-05-21T16:08:53.305Z,17.60
2019-05-21T16:11:39.270Z,17.50
2019-05-21T16:14:37.570Z,16.60
2019-05-21T16:20:29.793Z,18.00
2019-05-21T16:26:39.285Z,17.90
2019-05-21T16:29:30.362Z,18.10
2019-05-21T16:32:37.323Z,17.50
2019-05-21T16:35:45.245Z,16.80
2019-05-21T16:38:38.814Z,17.10
2019-05-21T16:41:44.383Z,17.00
2019-05-21T16:51:43.460Z,16.90
2019-05-21T17:04:12.339Z,16.10
2019-05-21T17:07:05.102Z,16.40
2019-05-21T17:22:46.610Z,16.10
2019-05-21T17:28:33.629Z,16.30
2019-05-21T17:44:08.845Z,15.90
2019-05-21T17:50:34.188Z,15.80
2019-05-21T18:06:34.354Z,15.60
2019-05-21T18:09:39.868Z,15.60
2019-05-21T18:12:12.084Z,15.70
2019-05-21T18:15:14.150Z,15.60
2019-05-21T18:18:01.156Z,15.70
2019-05-21T18:23:52.157Z,15.70
2019-05-21T18:26:39.171Z,15.70
2019-05-21T18:29:37.447Z,15.70
2019-05-21T18:39:00.638Z,15.80
2019-05-21T18:42:01.280Z,15.80
2019-05-21T18:47:45.661Z,15.70
2019-05-21T18:53:12.784Z,15.70
2019-05-21T18:56:02.077Z,15.60
2019-05-21T18:58:41.036Z,15.60
2019-05-21T19:04:36.379Z,15.60
2019-05-21T19:07:29.769Z,15.50
2019-05-21T19:13:13.177Z,16.70
2019-05-21T19:15:49.685Z,15.60
2019-05-21T19:21:43.965Z,15.60
2019-05-21T19:24:57.480Z,15.60
2019-05-21T19:27:26.729Z,15.60
2019-05-21T19:30:09.519Z,15.70
2019-05-21T19:32:44.513Z,15.60
2019-05-21T19:35:19.845Z,15.60
2019-05-21T19:38:15.961Z,15.60
2019-05-21T19:41:08.233Z,15.50
2019-05-21T19:44:19.098Z,15.40
2019-05-21T19:46:58.617Z,15.40
2019-05-21T19:59:46.744Z,15.30
2019-05-21T20:05:52.623Z,15.20
2019-05-21T20:09:13.163Z,15.20
2019-05-21T20:11:22.992Z,15.10
2019-05-21T20:14:27.430Z,15.30
2019-05-21T20:17:51.078Z,15.00
2019-05-21T20:24:14.407Z,15.10
2019-05-21T20:30:33.486Z,15.00
2019-05-21T20:33:38.646Z,15.00
2019-05-21T20:47:17.487Z,15.00
2019-05-21T20:50:12.099Z,15.00
2019-05-21T20:53:13.604Z,15.00
2019-05-21T20:59:16.367Z,15.00
2019-05-21T21:01:43.399Z,15.00
2019-05-21T21:07:24.821Z,15.10
2019-05-21T21:12:59.070Z,15.20
2019-05-21T21:15:59.341Z,15.20
2019-05-21T21:18:59.553Z,14.60
2019-05-21T21:22:05.006Z,15.20
2019-05-21T21:25:15.772Z,15.00
2019-05-21T21:35:00.488Z,15.20
2019-05-21T21:38:18.243Z,15.20
2019-05-21T21:41:28.754Z,15.20
2019-05-21T21:47:10.942Z,15.20
2019-05-21T21:53:14.477Z,15.30
2019-05-21T21:56:25.302Z,15.20
2019-05-21T21:59:31.025Z,15.30
2019-05-21T22:02:21.469Z,15.30
2019-05-21T22:08:58.635Z,15.30
2019-05-21T22:11:51.948Z,15.30
2019-05-21T22:14:28.737Z,15.30
2019-05-21T22:16:59.685Z,15.40
2019-05-21T22:26:59.210Z,15.40
2019-05-21T22:29:36.532Z,15.40
2019-05-21T22:32:16.516Z,15.40
2019-05-21T22:35:04.264Z,15.40
2019-05-21T22:37:41.647Z,15.30
2019-05-21T22:40:12.666Z,16.00
2019-05-21T22:42:55.040Z,15.40
2019-05-21T22:45:30.867Z,15.40
2019-05-21T22:48:11.391Z,15.50
2019-05-21T22:50:42.610Z,15.40
2019-05-21T22:53:14.350Z,15.70
2019-05-21T22:55:52.238Z,15.20
2019-05-21T22:58:23.813Z,15.30
2019-05-21T23:00:53.923Z,15.30
2019-05-21T23:03:25.410Z,15.30
2019-05-21T23:19:44.022Z,14.80
2019-05-21T23:22:17.006Z,14.80
2019-05-21T23:25:00.788Z,14.70
2019-05-21T23:27:31.321Z,14.80
2019-05-21T23:30:05.229Z,15.00
2019-05-21T23:32:32.814Z,14.60
2019-05-21T23:35:04.981Z,14.60
2019-05-21T23:37:36.841Z,14.60
2019-05-21T23:40:10.766Z,14.60
2019-05-21T23:42:43.097Z,14.60
2019-05-21T23:45:24.830Z,14.80
2019-05-21T23:47:52.594Z,14.60
2019-05-21T23:50:31.424Z,14.50
2019-05-21T23:53:09.453Z,14.50
2019-05-21T23:55:41.704Z,14.40
2019-05-21T23:58:09.628Z,14.40
